Las Torres de Cotillas, Spain
Current Conditions -  °F | °C
As of 3:00 PM on Thursday 27 Nov 2014 (Local Time) from LELC Reporting Station
Few Clouds Few Clouds  
Wind Chill: 66°   Ceiling: Unl
Heat Index: 66°   Visibility: 6mi
Dew Point: 59°   Wind: 3mph
Humidity: 78%   Direction: 120°ESE
Pressure: 29.56"   Gusts: NA
Location:  38.03°N, 1.24°W
Report Text: LELC 271400Z 12003KT 070V150 9999 FEW020 19/15 Q1001 NOSIG
Loading
Personal Weather Stations






























Interactive Weather Map New forecast layout! Learn more

10-Day Weather Forecast

Advertisements
Track Severe Weather on mobile